createdAt,value
2019-05-15T00:00:21.887Z,99.90
2019-05-15T00:02:50.902Z,99.90
2019-05-15T00:05:19.886Z,99.90
2019-05-15T00:07:49.171Z,99.90
2019-05-15T00:10:18.261Z,99.90
2019-05-15T00:12:48.644Z,99.90
2019-05-15T00:15:18.252Z,99.90
2019-05-15T00:17:48.599Z,99.90
2019-05-15T00:20:20.079Z,99.90
2019-05-15T00:22:48.636Z,99.90
2019-05-15T00:25:18.848Z,99.90
2019-05-15T00:27:49.171Z,99.90
2019-05-15T00:30:18.422Z,99.90
2019-05-15T00:32:48.665Z,99.90
2019-05-15T00:35:18.464Z,99.90
2019-05-15T00:37:49.246Z,99.90
2019-05-15T00:40:18.596Z,99.90
2019-05-15T00:42:48.764Z,99.90
2019-05-15T00:45:18.734Z,99.90
2019-05-15T00:47:48.684Z,99.90
2019-05-15T00:50:18.419Z,99.90
2019-05-15T00:52:48.467Z,99.90
2019-05-15T00:55:19.080Z,99.90
2019-05-15T00:57:48.664Z,99.90
2019-05-15T01:00:28.221Z,99.90
2019-05-15T01:02:57.834Z,99.90
2019-05-15T01:05:28.003Z,99.90
2019-05-15T01:07:58.628Z,99.90
2019-05-15T01:10:28.716Z,99.90
2019-05-15T01:12:58.483Z,99.90
2019-05-15T01:15:29.052Z,99.90
2019-05-15T01:17:58.606Z,99.90
2019-05-15T01:20:28.608Z,99.90
2019-05-15T01:22:59.155Z,99.90
2019-05-15T01:25:28.481Z,99.90
2019-05-15T01:27:58.340Z,99.90
2019-05-15T01:30:28.617Z,99.90
2019-05-15T01:32:59.202Z,99.90
2019-05-15T01:35:28.743Z,99.90
2019-05-15T01:37:58.547Z,99.90
2019-05-15T01:40:28.948Z,99.90
2019-05-15T01:42:58.335Z,99.90
2019-05-15T01:45:28.641Z,99.90
2019-05-15T01:47:58.626Z,99.90
2019-05-15T01:50:29.235Z,99.90
2019-05-15T01:52:58.606Z,99.90
2019-05-15T01:55:28.405Z,99.90
2019-05-15T01:57:58.180Z,99.90
2019-05-15T02:00:28.268Z,99.90
2019-05-15T02:02:58.782Z,99.90
2019-05-15T02:05:28.297Z,99.90
2019-05-15T02:07:58.556Z,99.90
2019-05-15T02:10:29.184Z,99.90
2019-05-15T02:12:58.832Z,99.90
2019-05-15T02:15:28.557Z,99.90
2019-05-15T02:17:58.797Z,99.90
2019-05-15T02:20:29.154Z,99.90
2019-05-15T02:22:59.130Z,99.90
2019-05-15T02:25:28.407Z,99.90
2019-05-15T02:27:58.705Z,99.90
2019-05-15T02:30:33.591Z,99.90
2019-05-15T02:32:59.389Z,99.90
2019-05-15T02:35:29.514Z,99.90
2019-05-15T02:37:59.753Z,99.90
2019-05-15T02:40:29.588Z,99.90
2019-05-15T02:42:59.245Z,99.90
2019-05-15T02:45:30.088Z,99.90
2019-05-15T02:47:59.739Z,99.90
2019-05-15T02:50:29.231Z,99.90
2019-05-15T02:53:00.606Z,99.90
2019-05-15T02:55:29.837Z,99.90
2019-05-15T02:57:59.195Z,99.90
2019-05-15T03:00:41.245Z,99.90
2019-05-15T03:03:00.249Z,99.90
2019-05-15T03:05:29.671Z,99.90
2019-05-15T03:07:59.505Z,99.90
2019-05-15T03:10:29.624Z,99.90
2019-05-15T03:13:00.167Z,99.90
2019-05-15T03:15:29.323Z,99.90
2019-05-15T03:18:00.404Z,99.90
2019-05-15T03:20:29.996Z,99.90
2019-05-15T03:22:59.769Z,99.90
2019-05-15T03:25:29.832Z,99.90
2019-05-15T03:27:59.652Z,99.90
2019-05-15T03:30:32.270Z,99.90
2019-05-15T03:33:03.955Z,99.90
2019-05-15T03:35:32.934Z,99.90
2019-05-15T03:38:01.353Z,99.90
2019-05-15T03:40:30.399Z,99.90
2019-05-15T03:42:59.600Z,99.90
2019-05-15T03:45:29.823Z,99.90
2019-05-15T03:47:59.495Z,99.90
2019-05-15T03:50:29.149Z,99.90
2019-05-15T03:52:58.834Z,99.90
2019-05-15T03:55:29.618Z,99.90
2019-05-15T03:57:59.271Z,99.90
2019-05-15T04:00:30.111Z,99.90
2019-05-15T04:02:59.259Z,99.90
2019-05-15T04:05:29.322Z,99.90
2019-05-15T04:07:59.906Z,99.90
2019-05-15T04:10:29.112Z,99.90
2019-05-15T04:13:00.106Z,99.90
2019-05-15T04:15:30.154Z,99.90
2019-05-15T04:18:00.513Z,99.90
2019-05-15T04:20:29.905Z,99.90
2019-05-15T04:23:00.310Z,99.90
2019-05-15T04:25:30.033Z,99.90
2019-05-15T04:28:01.093Z,99.90
2019-05-15T04:30:31.009Z,99.90
2019-05-15T04:32:59.941Z,99.90
2019-05-15T04:35:29.088Z,99.90
2019-05-15T04:37:59.800Z,99.90
2019-05-15T04:40:29.936Z,99.90
2019-05-15T04:42:59.429Z,99.90
2019-05-15T04:45:34.466Z,99.90
2019-05-15T04:47:59.034Z,99.90
2019-05-15T04:50:28.954Z,99.90
2019-05-15T04:52:59.319Z,99.90
2019-05-15T04:55:29.187Z,99.90
2019-05-15T04:57:59.147Z,99.90
2019-05-15T05:00:59.927Z,99.90
2019-05-15T05:03:29.268Z,99.90
2019-05-15T05:05:59.297Z,99.90
2019-05-15T05:08:29.275Z,99.90
2019-05-15T05:10:59.365Z,99.90
2019-05-15T05:13:28.905Z,99.90
2019-05-15T05:15:58.827Z,99.90
2019-05-15T05:18:29.736Z,99.90
2019-05-15T05:20:59.066Z,99.90
2019-05-15T05:23:28.359Z,99.90
2019-05-15T05:25:58.172Z,99.90
2019-05-15T05:28:29.009Z,99.90
2019-05-15T05:30:58.828Z,99.90
2019-05-15T05:33:28.653Z,99.90
2019-05-15T05:35:58.493Z,99.90
2019-05-15T05:38:28.229Z,99.90
2019-05-15T05:40:58.658Z,99.90
2019-05-15T05:43:29.995Z,99.90
2019-05-15T05:45:58.563Z,99.90
2019-05-15T05:48:29.268Z,99.90
2019-05-15T05:50:58.468Z,99.90
2019-05-15T05:53:28.731Z,99.90
2019-05-15T05:55:58.184Z,99.90
2019-05-15T05:58:29.639Z,99.90
2019-05-15T06:00:58.727Z,99.90
2019-05-15T06:03:28.240Z,99.90
2019-05-15T06:05:59.097Z,99.90
2019-05-15T06:08:28.317Z,99.90
2019-05-15T06:10:58.502Z,99.90
2019-05-15T06:13:29.102Z,99.90
2019-05-15T06:15:59.135Z,99.90
2019-05-15T06:18:28.392Z,99.90
2019-05-15T06:20:58.574Z,98.20
2019-05-15T06:23:33.634Z,97.20
2019-05-15T06:25:59.364Z,97.30
2019-05-15T06:28:28.992Z,96.70
2019-05-15T06:31:00.658Z,96.30
2019-05-15T06:33:29.527Z,98.40
2019-05-15T06:35:59.230Z,95.60
2019-05-15T06:38:30.872Z,95.10
2019-05-15T06:40:59.001Z,93.30
2019-05-15T06:43:28.131Z,91.90
2019-05-15T06:45:58.423Z,91.10
2019-05-15T06:48:28.843Z,87.50
2019-05-15T06:50:58.214Z,86.00
2019-05-15T06:53:29.021Z,84.10
2019-05-15T06:55:58.472Z,80.30
2019-05-15T06:58:28.955Z,79.60
2019-05-15T07:00:59.200Z,75.30
2019-05-15T07:03:29.567Z,71.70
2019-05-15T07:06:00.014Z,71.30
2019-05-15T07:08:29.179Z,62.00
2019-05-15T07:10:58.249Z,59.90
2019-05-15T07:13:29.038Z,57.50
2019-05-15T07:15:58.548Z,57.50
2019-05-15T07:18:28.492Z,56.40
2019-05-15T07:20:58.162Z,55.20
2019-05-15T07:23:30.584Z,49.50
2019-05-15T07:25:58.742Z,47.10
2019-05-15T07:28:29.403Z,40.90
2019-05-15T07:30:58.518Z,39.00
2019-05-15T07:33:36.687Z,37.10
2019-05-15T07:35:59.007Z,35.40
2019-05-15T07:38:28.463Z,37.70
2019-05-15T07:41:03.774Z,38.60
2019-05-15T07:43:28.181Z,36.40
2019-05-15T07:45:59.031Z,38.10
2019-05-15T07:48:29.090Z,36.10
2019-05-15T07:50:59.501Z,37.60
2019-05-15T07:53:29.027Z,41.10
2019-05-15T07:56:01.033Z,39.60
2019-05-15T07:58:28.680Z,39.60
2019-05-15T08:00:58.970Z,40.80
2019-05-15T08:03:29.250Z,41.10
2019-05-15T08:06:02.789Z,41.50
2019-05-15T08:08:29.221Z,43.80
2019-05-15T08:10:58.294Z,43.10
2019-05-15T08:13:28.971Z,41.40
2019-05-15T08:15:58.231Z,43.70
2019-05-15T08:18:28.578Z,45.30
2019-05-15T08:20:58.560Z,43.20
2019-05-15T08:23:28.418Z,46.60
2019-05-15T08:25:57.987Z,43.00
2019-05-15T08:28:28.752Z,43.40
2019-05-15T08:30:58.512Z,43.80
2019-05-15T08:33:28.184Z,44.50
2019-05-15T08:35:58.831Z,43.40
2019-05-15T08:38:28.964Z,43.10
2019-05-15T08:40:59.207Z,42.60
2019-05-15T08:43:31.178Z,42.70
2019-05-15T08:45:59.211Z,43.20
2019-05-15T08:48:28.168Z,41.10
2019-05-15T08:50:57.907Z,41.30
2019-05-15T08:53:28.428Z,43.00
2019-05-15T08:55:58.752Z,42.90
2019-05-15T08:58:29.084Z,42.00
2019-05-15T09:00:58.997Z,41.90
2019-05-15T09:03:28.762Z,41.70
2019-05-15T09:05:59.023Z,42.20
2019-05-15T09:08:29.255Z,42.90
2019-05-15T09:10:58.830Z,41.80
2019-05-15T09:13:29.326Z,43.60
2019-05-15T09:15:59.006Z,44.70
2019-05-15T09:18:28.566Z,42.70
2019-05-15T09:20:59.414Z,42.60
2019-05-15T09:23:29.037Z,44.30
2019-05-15T09:25:58.621Z,41.50
2019-05-15T09:28:29.595Z,40.80
2019-05-15T09:30:59.052Z,39.60
2019-05-15T09:33:28.759Z,40.00
2019-05-15T09:35:58.506Z,38.10
2019-05-15T09:38:28.872Z,36.60
2019-05-15T09:40:58.659Z,34.40
2019-05-15T09:43:28.566Z,35.80
2019-05-15T09:45:58.389Z,35.40
2019-05-15T09:48:28.822Z,35.60
2019-05-15T09:50:58.723Z,37.40
2019-05-15T09:53:28.475Z,37.80
2019-05-15T09:55:59.919Z,37.50
2019-05-15T09:58:30.251Z,39.80
2019-05-15T10:00:59.246Z,40.70
2019-05-15T10:03:28.354Z,41.00
2019-05-15T10:05:57.542Z,42.40
2019-05-15T10:08:29.219Z,41.90
2019-05-15T10:10:59.207Z,41.60
2019-05-15T10:13:28.953Z,38.30
2019-05-15T10:15:58.593Z,36.90
2019-05-15T10:18:28.191Z,38.20
2019-05-15T10:20:58.112Z,39.00
2019-05-15T10:23:29.071Z,40.60
2019-05-15T10:25:58.910Z,39.30
2019-05-15T10:28:29.397Z,41.80
2019-05-15T10:30:59.993Z,40.10
2019-05-15T10:33:29.757Z,38.70
2019-05-15T10:35:59.232Z,39.20
2019-05-15T10:38:28.616Z,38.70
2019-05-15T10:41:08.161Z,39.50
2019-05-15T10:43:28.843Z,40.50
2019-05-15T10:45:58.743Z,40.80
2019-05-15T10:48:29.304Z,40.30
2019-05-15T10:51:05.847Z,38.60
2019-05-15T10:53:29.773Z,39.00
2019-05-15T10:55:59.620Z,39.20
2019-05-15T10:58:29.988Z,40.90
2019-05-15T11:01:01.853Z,40.70
2019-05-15T11:03:29.928Z,40.80
2019-05-15T11:05:59.500Z,40.80
2019-05-15T11:08:28.976Z,42.00
2019-05-15T11:10:58.626Z,42.60
2019-05-15T11:13:28.815Z,44.60
2019-05-15T11:15:58.167Z,41.80
2019-05-15T11:18:30.461Z,41.10
2019-05-15T11:20:59.345Z,42.00
2019-05-15T11:23:29.363Z,42.20
2019-05-15T11:25:58.608Z,43.90
2019-05-15T11:28:31.616Z,42.20
2019-05-15T11:30:59.508Z,42.10
2019-05-15T11:33:29.412Z,41.70
2019-05-15T11:36:05.319Z,41.00
2019-05-15T11:38:29.308Z,43.40
2019-05-15T11:40:58.431Z,43.40
2019-05-15T11:43:29.181Z,42.20
2019-05-15T11:45:58.917Z,42.10
2019-05-15T11:48:29.922Z,43.10
2019-05-15T11:50:59.406Z,43.10
2019-05-15T11:53:28.655Z,43.20
2019-05-15T11:55:59.899Z,43.30
2019-05-15T11:58:29.642Z,43.80
2019-05-15T12:00:59.018Z,45.60
2019-05-15T12:03:29.126Z,44.80
2019-05-15T12:06:07.459Z,44.90
2019-05-15T12:08:29.466Z,44.50
2019-05-15T12:10:59.443Z,43.30
2019-05-15T12:13:28.815Z,44.30
2019-05-15T12:15:58.936Z,43.90
2019-05-15T12:18:28.688Z,44.90
2019-05-15T12:20:59.646Z,44.70
2019-05-15T12:23:29.477Z,44.60
2019-05-15T12:25:59.710Z,42.40
2019-05-15T12:28:29.754Z,44.40
2019-05-15T12:30:59.847Z,43.30
2019-05-15T12:35:59.543Z,44.10
2019-05-15T12:38:29.099Z,42.30
2019-05-15T13:01:16.659Z,45.70
2019-05-15T13:03:34.880Z,47.40
2019-05-15T13:06:04.145Z,47.70
2019-05-15T13:08:33.119Z,47.60
2019-05-15T13:11:02.453Z,50.70
2019-05-15T13:13:31.463Z,51.40
2019-05-15T13:16:00.391Z,49.40
2019-05-15T13:18:29.348Z,49.10
2019-05-15T13:20:59.455Z,48.80
2019-05-15T13:23:28.811Z,49.70
2019-05-15T13:25:59.272Z,50.50
2019-05-15T13:28:29.223Z,50.50
2019-05-15T13:30:59.552Z,51.90
2019-05-15T13:33:29.028Z,51.80
2019-05-15T13:35:58.569Z,50.30
2019-05-15T13:38:28.769Z,52.40
2019-05-15T13:40:58.991Z,53.70
2019-05-15T13:43:29.070Z,52.90
2019-05-15T13:45:58.958Z,53.00
2019-05-15T13:48:29.351Z,54.20
2019-05-15T13:50:59.250Z,53.20
2019-05-15T13:53:28.335Z,54.80
2019-05-15T13:55:57.399Z,54.20
2019-05-15T13:58:28.194Z,55.60
2019-05-15T14:00:58.861Z,55.80
2019-05-15T14:03:28.452Z,55.00
2019-05-15T14:05:58.511Z,55.50
2019-05-15T14:08:28.763Z,55.00
2019-05-15T14:10:58.402Z,55.00
2019-05-15T14:13:28.842Z,55.90
2019-05-15T14:15:58.335Z,56.00
2019-05-15T14:18:28.609Z,55.60
2019-05-15T14:20:58.386Z,56.20
2019-05-15T14:23:29.461Z,56.20
2019-05-15T14:25:58.991Z,56.20
2019-05-15T14:28:28.947Z,56.70
2019-05-15T14:30:58.698Z,56.60
2019-05-15T14:33:29.216Z,56.40
2019-05-15T14:35:58.385Z,57.40
2019-05-15T14:38:29.079Z,56.40
2019-05-15T14:40:59.036Z,57.20
2019-05-15T14:43:29.374Z,56.60
2019-05-15T14:45:58.877Z,55.80
2019-05-15T14:48:28.193Z,56.60
2019-05-15T14:50:58.403Z,56.40
2019-05-15T14:53:29.436Z,56.90
2019-05-15T14:56:00.258Z,56.20
2019-05-15T14:58:29.292Z,56.30
2019-05-15T15:01:03.150Z,56.50
2019-05-15T15:03:29.067Z,56.90
2019-05-15T15:05:58.518Z,55.60
2019-05-15T15:08:29.266Z,56.50
2019-05-15T15:10:59.425Z,56.40
2019-05-15T15:13:28.989Z,57.30
2019-05-15T15:15:59.091Z,55.80
2019-05-15T15:18:28.350Z,57.10
2019-05-15T15:20:58.055Z,58.40
2019-05-15T15:23:28.319Z,57.30
2019-05-15T15:25:57.932Z,56.80
2019-05-15T15:28:27.101Z,56.90
2019-05-15T15:30:58.084Z,57.70
2019-05-15T15:33:29.321Z,57.90
2019-05-15T15:35:58.522Z,58.30
2019-05-15T15:38:40.210Z,58.30
2019-05-15T15:41:00.410Z,57.70
2019-05-15T15:43:29.516Z,58.50
2019-05-15T15:45:58.544Z,58.80
2019-05-15T15:48:28.544Z,59.00
2019-05-15T15:50:58.645Z,60.10
2019-05-15T15:53:28.583Z,59.70
2019-05-15T15:55:58.139Z,59.80
2019-05-15T15:58:28.952Z,59.80
2019-05-15T16:00:57.935Z,59.90
2019-05-15T16:03:28.622Z,59.10
2019-05-15T16:05:57.570Z,58.90
2019-05-15T16:08:28.538Z,59.50
2019-05-15T16:10:59.008Z,58.60
2019-05-15T16:13:29.286Z,59.80
2019-05-15T16:15:58.710Z,60.40
2019-05-15T16:18:28.908Z,60.90
2019-05-15T16:20:58.108Z,61.80
2019-05-15T16:23:28.279Z,62.60
2019-05-15T16:26:00.600Z,64.10
2019-05-15T16:28:29.031Z,64.00
2019-05-15T16:30:58.727Z,64.50
2019-05-15T16:33:28.470Z,64.00
2019-05-15T16:35:58.196Z,65.60
2019-05-15T16:38:28.462Z,64.40
2019-05-15T16:40:58.235Z,64.90
2019-05-15T16:43:28.681Z,64.60
2019-05-15T16:45:58.709Z,64.60
2019-05-15T16:48:29.365Z,65.00
2019-05-15T16:50:58.662Z,65.30
2019-05-15T16:53:29.027Z,65.40
2019-05-15T16:55:58.619Z,67.00
2019-05-15T16:58:29.608Z,66.50
2019-05-15T17:00:58.961Z,67.10
2019-05-15T17:03:28.939Z,68.00
2019-05-15T17:05:58.724Z,66.90
2019-05-15T17:08:28.840Z,66.50
2019-05-15T17:10:58.761Z,67.80
2019-05-15T17:13:28.758Z,69.00
2019-05-15T17:15:58.540Z,66.00
2019-05-15T17:18:27.845Z,65.50
2019-05-15T17:20:58.878Z,67.50
2019-05-15T17:23:27.757Z,67.80
2019-05-15T17:25:58.112Z,68.60
2019-05-15T17:28:29.051Z,69.90
2019-05-15T17:30:58.541Z,68.60
2019-05-15T17:33:28.868Z,67.10
2019-05-15T17:35:58.135Z,67.50
2019-05-15T17:38:28.630Z,68.40
2019-05-15T17:40:58.161Z,68.60
2019-05-15T17:43:28.762Z,69.10
2019-05-15T17:45:58.344Z,70.50
2019-05-15T17:48:28.816Z,70.90
2019-05-15T17:50:59.194Z,72.40
2019-05-15T17:53:28.933Z,73.70
2019-05-15T17:55:58.688Z,75.80
2019-05-15T17:58:28.881Z,75.10
2019-05-15T18:00:59.436Z,76.80
2019-05-15T18:03:29.044Z,77.40
2019-05-15T18:05:59.169Z,79.50
2019-05-15T18:08:28.708Z,80.80
2019-05-15T18:10:58.718Z,82.00
2019-05-15T18:13:28.686Z,86.90
2019-05-15T18:16:02.764Z,91.20
2019-05-15T18:18:28.732Z,93.80
2019-05-15T18:20:58.244Z,97.00
2019-05-15T18:23:27.822Z,99.90
2019-05-15T18:25:58.466Z,99.90
2019-05-15T18:28:27.647Z,99.90
2019-05-15T18:30:58.588Z,99.90
2019-05-15T18:33:28.001Z,99.90
2019-05-15T18:35:58.070Z,99.90
2019-05-15T18:38:28.150Z,99.90
2019-05-15T18:40:58.236Z,99.90
2019-05-15T18:43:28.481Z,99.90
2019-05-15T18:45:58.566Z,99.90
2019-05-15T18:48:28.894Z,99.90
2019-05-15T18:50:58.745Z,99.90
2019-05-15T18:53:28.460Z,99.90
2019-05-15T18:55:58.458Z,99.90
2019-05-15T18:58:27.665Z,99.90
2019-05-15T19:00:58.389Z,99.90
2019-05-15T19:03:27.904Z,99.90
2019-05-15T19:05:58.439Z,99.90
2019-05-15T19:08:28.190Z,99.90
2019-05-15T19:10:58.438Z,99.90
2019-05-15T19:13:28.249Z,99.90
2019-05-15T19:15:58.134Z,99.90
2019-05-15T19:18:27.905Z,99.90
2019-05-15T19:20:58.570Z,99.90
2019-05-15T19:23:27.823Z,99.90
2019-05-15T19:25:57.904Z,99.90
2019-05-15T19:28:28.655Z,99.90
2019-05-15T19:30:58.716Z,99.90
2019-05-15T19:33:36.920Z,99.90
2019-05-15T19:35:58.599Z,99.90
2019-05-15T19:38:27.997Z,99.90
2019-05-15T19:41:02.984Z,99.90
2019-05-15T19:43:28.533Z,99.90
2019-05-15T19:45:58.467Z,99.90
2019-05-15T19:48:27.791Z,99.90
2019-05-15T19:50:58.267Z,99.90
2019-05-15T19:53:28.305Z,99.90
2019-05-15T19:55:57.981Z,99.90
2019-05-15T19:58:28.628Z,99.90
2019-05-15T20:00:57.818Z,99.90
2019-05-15T20:03:28.401Z,99.90
2019-05-15T20:05:57.809Z,99.90
2019-05-15T20:08:27.844Z,99.90
2019-05-15T20:10:59.313Z,99.90
2019-05-15T20:13:29.094Z,99.90
2019-05-15T20:15:58.172Z,99.90
2019-05-15T20:18:28.013Z,99.90
2019-05-15T20:20:58.514Z,99.90
2019-05-15T20:23:28.898Z,99.90
2019-05-15T20:25:58.291Z,99.90
2019-05-15T20:28:28.589Z,99.90
2019-05-15T20:30:58.693Z,99.90
2019-05-15T20:33:28.596Z,99.90
2019-05-15T20:35:58.855Z,99.90
2019-05-15T20:38:28.578Z,99.90
2019-05-15T20:40:59.811Z,99.90
2019-05-15T20:43:28.386Z,99.90
2019-05-15T20:45:57.866Z,99.90
2019-05-15T20:48:28.732Z,99.90
2019-05-15T20:50:59.009Z,99.90
2019-05-15T20:53:28.702Z,99.90
2019-05-15T20:55:58.895Z,99.90
2019-05-15T20:58:28.143Z,99.90
2019-05-15T21:00:59.074Z,99.90
2019-05-15T21:03:28.091Z,99.90
2019-05-15T21:05:57.742Z,99.90
2019-05-15T21:08:28.865Z,99.90
2019-05-15T21:10:58.995Z,99.90
2019-05-15T21:13:29.844Z,99.90
2019-05-15T21:15:59.055Z,99.90
2019-05-15T21:18:28.967Z,99.90
2019-05-15T21:20:58.275Z,99.90
2019-05-15T21:23:28.538Z,99.90
2019-05-15T21:25:59.043Z,99.90
2019-05-15T21:28:30.105Z,99.90
2019-05-15T21:30:59.119Z,99.90
2019-05-15T21:33:28.250Z,99.90
2019-05-15T21:35:58.384Z,99.90
2019-05-15T21:38:28.373Z,99.90
2019-05-15T21:40:58.597Z,99.90
2019-05-15T21:43:27.989Z,99.90
2019-05-15T21:45:59.126Z,99.90
2019-05-15T21:48:28.799Z,99.90
2019-05-15T21:50:58.025Z,99.90
2019-05-15T21:53:28.708Z,99.90
2019-05-15T21:55:58.825Z,99.90
2019-05-15T21:58:28.407Z,99.90
2019-05-15T22:00:58.318Z,99.90
2019-05-15T22:03:28.503Z,99.90
2019-05-15T22:05:58.216Z,99.90
2019-05-15T22:08:27.825Z,99.90
2019-05-15T22:10:57.063Z,99.90
2019-05-15T22:13:31.169Z,99.90
2019-05-15T22:15:59.340Z,99.90
2019-05-15T22:18:28.117Z,99.90
2019-05-15T22:20:58.569Z,99.90
2019-05-15T22:23:27.933Z,99.90
2019-05-15T22:25:58.397Z,99.90
2019-05-15T22:28:28.179Z,99.90
2019-05-15T22:30:58.413Z,99.90
2019-05-15T22:33:28.563Z,99.90
2019-05-15T22:35:59.242Z,99.90
2019-05-15T22:38:28.640Z,99.90
2019-05-15T22:40:57.677Z,99.90
2019-05-15T22:43:28.664Z,99.90
2019-05-15T22:45:58.834Z,99.90
2019-05-15T22:48:28.721Z,99.90
2019-05-15T22:50:58.293Z,99.90
2019-05-15T22:53:28.928Z,99.90
2019-05-15T22:55:58.805Z,99.90
2019-05-15T22:58:28.210Z,99.90
2019-05-15T23:00:59.784Z,99.90
2019-05-15T23:03:28.332Z,99.90
2019-05-15T23:13:49.660Z,99.90
2019-05-15T23:16:19.312Z,99.90
2019-05-15T23:18:49.040Z,99.90
2019-05-15T23:21:18.878Z,99.90
2019-05-15T23:23:48.781Z,99.90
2019-05-15T23:26:18.085Z,99.90
2019-05-15T23:28:48.168Z,99.90
2019-05-15T23:31:18.868Z,99.90
2019-05-15T23:33:48.303Z,99.90
2019-05-15T23:36:18.099Z,99.90
2019-05-15T23:38:47.973Z,99.90
2019-05-15T23:41:18.918Z,99.90
2019-05-15T23:43:48.509Z,99.90
2019-05-15T23:46:18.423Z,99.90
2019-05-15T23:48:48.455Z,99.90
2019-05-15T23:51:19.008Z,99.90
2019-05-15T23:53:48.459Z,99.90
2019-05-15T23:56:18.954Z,99.90
2019-05-15T23:58:48.382Z,99.90
